Decatur, Iowa
Current Conditions -  °F | °C
As of 4:03 AM on Friday 31 Oct 2014 (Local Time) from KLWD Reporting Station
Light Snow Light Snow  
Wind Chill: 27°   Ceiling: 3100
Heat Index: 38°   Visibility: 9mi
Dew Point: 26°   Wind: 22mph
Humidity: 62%   Direction: 360°N
Pressure: 30.34"   Gusts: 31mph
Location:  40.74°N, 93.84°W
Report Text: KLWD 310903Z AUTO 36019G27KT 9SM -SN OVC031 03/M03 A3034 RMK AO2 PK WND 01027/0854 SNB0854 P0000 T00331033
Loading
Personal Weather Stations






























Interactive Weather Map
Tropical Storm Tracking
New forecast layout! Learn more

10-Day Weather Forecast

Advertisements
Track Severe Weather on mobile